createdAt,value
2018-12-13T00:00:39.727Z,6.15
2018-12-13T00:03:08.257Z,6.67
2018-12-13T00:05:36.762Z,6.50
2018-12-13T00:08:05.310Z,6.63
2018-12-13T00:10:33.784Z,6.23
2018-12-13T00:13:02.304Z,6.10
2018-12-13T00:15:31.891Z,6.50
2018-12-13T00:18:00.688Z,7.60
2018-12-13T00:20:29.276Z,7.67
2018-12-13T00:22:57.793Z,7.97
2018-12-13T00:25:26.287Z,7.05
2018-12-13T00:27:54.821Z,9.17
2018-12-13T00:30:23.307Z,8.47
2018-12-13T00:32:51.832Z,8.27
2018-12-13T00:35:20.351Z,9.33
2018-12-13T00:37:49.547Z,9.10
2018-12-13T00:40:18.899Z,9.57
2018-12-13T00:42:47.421Z,8.90
2018-12-13T00:45:15.905Z,9.07
2018-12-13T00:47:44.421Z,9.50
2018-12-13T00:50:12.902Z,9.90
2018-12-13T00:52:41.400Z,10.03
2018-12-13T00:55:09.887Z,9.55
2018-12-13T00:57:38.406Z,8.30
2018-12-13T01:00:07.529Z,9.77
2018-12-13T01:02:36.053Z,8.77
2018-12-13T01:05:04.898Z,8.83
2018-12-13T01:07:33.510Z,10.05
2018-12-13T01:10:02.087Z,10.73
2018-12-13T01:12:30.604Z,10.23
2018-12-13T01:14:59.092Z,10.43
2018-12-13T01:17:27.612Z,8.20
2018-12-13T01:19:56.115Z,8.60
2018-12-13T01:22:24.631Z,9.80
2018-12-13T01:24:53.671Z,10.10
2018-12-13T01:27:22.489Z,9.27
2018-12-13T01:29:51.061Z,9.75
2018-12-13T01:32:19.629Z,9.55
2018-12-13T01:34:48.121Z,9.30
2018-12-13T01:37:16.736Z,10.15
2018-12-13T01:39:45.247Z,10.27
2018-12-13T01:42:13.781Z,9.50
2018-12-13T01:44:42.400Z,9.67
2018-12-13T01:47:10.910Z,9.30
2018-12-13T01:49:39.386Z,8.20
2018-12-13T01:52:07.906Z,8.75
2018-12-13T01:54:36.390Z,7.45
2018-12-13T01:57:04.913Z,8.00
2018-12-13T01:59:33.413Z,7.83
2018-12-13T02:02:02.084Z,7.70
2018-12-13T02:04:30.592Z,6.83
2018-12-13T02:06:59.213Z,6.47
2018-12-13T02:09:27.700Z,6.17
2018-12-13T02:11:56.208Z,5.75
2018-12-13T02:14:24.734Z,6.70
2018-12-13T02:16:53.343Z,6.05
2018-12-13T02:19:21.851Z,5.00
2018-12-13T02:21:50.348Z,6.05
2018-12-13T02:24:18.979Z,6.30
2018-12-13T02:26:47.468Z,6.42
2018-12-13T02:29:15.980Z,6.60
2018-12-13T02:31:44.536Z,5.83
2018-12-13T02:34:13.043Z,6.83
2018-12-13T02:36:41.530Z,5.97
2018-12-13T02:39:10.032Z,5.85
2018-12-13T02:41:38.538Z,3.30
2018-12-13T02:44:07.076Z,5.90
2018-12-13T02:46:35.612Z,6.60
2018-12-13T02:49:09.273Z,7.20
2018-12-13T02:51:37.902Z,7.50
2018-12-13T02:54:06.565Z,6.43
2018-12-13T02:56:35.089Z,6.72
2018-12-13T02:59:03.805Z,7.00
2018-12-13T03:01:32.301Z,6.90
2018-12-13T03:04:00.844Z,6.80
2018-12-13T03:06:29.341Z,8.00
2018-12-13T03:08:57.856Z,9.40
2018-12-13T03:11:26.365Z,8.18
2018-12-13T03:13:54.921Z,10.05
2018-12-13T03:16:23.429Z,8.70
2018-12-13T03:18:52.314Z,8.27
2018-12-13T03:21:20.798Z,8.40
2018-12-13T03:23:49.332Z,9.23
2018-12-13T03:26:17.944Z,8.88
2018-12-13T03:28:46.460Z,9.28
2018-12-13T03:31:14.957Z,9.50
2018-12-13T03:33:43.494Z,9.10
2018-12-13T03:36:11.995Z,9.15
2018-12-13T03:38:40.509Z,9.30
2018-12-13T03:41:09.006Z,8.48
2018-12-13T03:43:37.530Z,9.73
2018-12-13T03:46:06.207Z,10.20
2018-12-13T03:48:34.926Z,9.70
2018-12-13T03:51:03.420Z,9.28
2018-12-13T03:53:31.935Z,9.45
2018-12-13T03:56:00.502Z,11.57
2018-12-13T03:58:29.021Z,10.80
2018-12-13T04:00:57.654Z,9.90
2018-12-13T04:03:26.242Z,10.38
2018-12-13T04:05:54.781Z,9.53
2018-12-13T04:08:23.291Z,9.65
2018-12-13T04:10:51.797Z,9.78
2018-12-13T04:13:20.327Z,10.55
2018-12-13T04:15:48.821Z,10.08
2018-12-13T04:18:17.485Z,11.45
2018-12-13T04:20:46.006Z,10.05
2018-12-13T04:23:14.555Z,9.83
2018-12-13T04:25:43.047Z,9.53
2018-12-13T04:28:11.565Z,11.20
2018-12-13T04:30:40.122Z,9.98
2018-12-13T04:33:08.656Z,11.00
2018-12-13T04:35:37.131Z,11.20
2018-12-13T04:38:05.669Z,12.60
2018-12-13T04:40:34.216Z,10.78
2018-12-13T04:43:02.724Z,11.40
2018-12-13T04:45:31.249Z,10.80
2018-12-13T04:47:59.751Z,11.35
2018-12-13T04:50:28.264Z,11.45
2018-12-13T04:52:56.768Z,11.38
2018-12-13T04:55:25.296Z,10.40
2018-12-13T04:57:53.795Z,13.00
2018-12-13T05:00:22.328Z,12.35
2018-12-13T05:02:50.833Z,12.10
2018-12-13T05:05:19.352Z,13.58
2018-12-13T05:07:47.870Z,13.65
2018-12-13T05:10:27.770Z,12.93
2018-12-13T05:12:56.310Z,13.93
2018-12-13T05:15:24.839Z,11.57
2018-12-13T05:17:53.354Z,13.18
2018-12-13T05:20:21.875Z,11.20
2018-12-13T05:22:50.367Z,11.85
2018-12-13T05:25:18.898Z,10.95
2018-12-13T05:27:47.393Z,10.37
2018-12-13T05:30:15.921Z,10.98
2018-12-13T05:32:44.583Z,10.60
2018-12-13T05:35:13.103Z,12.53
2018-12-13T05:37:42.803Z,13.45
2018-12-13T05:40:12.308Z,12.30
2018-12-13T05:42:40.911Z,12.88
2018-12-13T05:45:09.615Z,13.38
2018-12-13T05:47:38.135Z,12.40
2018-12-13T05:50:06.825Z,13.48
2018-12-13T05:52:35.337Z,12.15
2018-12-13T05:55:03.936Z,13.13
2018-12-13T05:57:32.427Z,12.03
2018-12-13T06:00:00.948Z,13.45
2018-12-13T06:02:29.465Z,9.35
2018-12-13T06:04:58.049Z,14.80
2018-12-13T06:07:26.760Z,12.63
2018-12-13T06:09:55.370Z,13.28
2018-12-13T06:12:23.936Z,13.53
2018-12-13T06:14:52.509Z,12.30
2018-12-13T06:17:21.048Z,13.40
2018-12-13T06:19:49.617Z,12.20
2018-12-13T06:22:18.127Z,12.80
2018-12-13T06:24:46.660Z,13.80
2018-12-13T06:27:15.165Z,12.17
2018-12-13T06:29:48.807Z,13.05
2018-12-13T06:32:14.254Z,14.37
2018-12-13T06:34:42.892Z,15.55
2018-12-13T06:37:11.385Z,14.28
2018-12-13T06:39:40.007Z,15.95
2018-12-13T06:42:08.520Z,15.75
2018-12-13T06:44:37.047Z,13.32
2018-12-13T06:47:05.568Z,14.45
2018-12-13T06:49:34.116Z,11.88
2018-12-13T06:52:02.705Z,14.90
2018-12-13T06:54:31.237Z,15.50
2018-12-13T06:57:00.634Z,12.15
2018-12-13T06:59:29.337Z,15.40
2018-12-13T07:01:57.841Z,14.93
2018-12-13T07:04:26.409Z,15.43
2018-12-13T07:06:54.942Z,16.00
2018-12-13T07:09:23.464Z,14.87
2018-12-13T07:11:51.965Z,13.85
2018-12-13T07:14:21.942Z,14.68
2018-12-13T07:16:51.846Z,14.87
2018-12-13T07:19:21.902Z,16.75
2018-12-13T07:21:52.394Z,16.73
2018-12-13T07:24:22.611Z,14.87
2018-12-13T07:26:53.045Z,12.82
2018-12-13T07:29:22.861Z,14.53
2018-12-13T07:31:52.969Z,12.35
2018-12-13T07:34:22.894Z,14.15
2018-12-13T07:36:52.604Z,16.60
2018-12-13T07:39:22.634Z,16.85
2018-12-13T07:41:52.443Z,14.47
2018-12-13T07:44:23.130Z,12.13
2018-12-13T07:46:53.233Z,14.30
2018-12-13T07:49:23.176Z,13.28
2018-12-13T07:51:52.870Z,13.53
2018-12-13T07:54:22.923Z,10.63
2018-12-13T07:56:52.796Z,12.30
2018-12-13T07:59:22.839Z,12.58
2018-12-13T08:01:52.886Z,15.90
2018-12-13T08:04:22.865Z,12.10
2018-12-13T08:06:52.628Z,12.75
2018-12-13T08:09:22.710Z,12.07
2018-12-13T08:11:52.750Z,11.05
2018-12-13T08:14:22.740Z,11.60
2018-12-13T08:16:52.903Z,12.60
2018-12-13T08:19:22.840Z,13.28
2018-12-13T08:21:52.603Z,12.20
2018-12-13T08:24:21.248Z,14.63
2018-12-13T08:26:52.022Z,11.53
2018-12-13T08:29:20.548Z,10.68
2018-12-13T08:31:49.166Z,11.50
2018-12-13T08:34:17.809Z,11.65
2018-12-13T08:36:46.439Z,11.65
2018-12-13T08:39:14.960Z,12.43
2018-12-13T08:41:43.509Z,11.75
2018-12-13T08:44:12.041Z,10.90
2018-12-13T08:46:40.597Z,10.38
2018-12-13T08:49:09.096Z,9.15
2018-12-13T08:51:37.629Z,9.50
2018-12-13T08:54:06.229Z,9.80
2018-12-13T08:56:34.767Z,9.25
2018-12-13T09:00:27.694Z,10.38
2018-12-13T09:02:56.364Z,10.70
2018-12-13T09:05:24.943Z,12.63
2018-12-13T09:07:53.463Z,10.43
2018-12-13T09:10:21.992Z,11.40
2018-12-13T09:12:50.586Z,12.70
2018-12-13T09:15:19.865Z,13.55
2018-12-13T09:17:48.596Z,11.90
2018-12-13T09:20:17.120Z,13.95
2018-12-13T09:22:45.647Z,12.65
2018-12-13T09:25:14.170Z,12.68
2018-12-13T09:27:42.695Z,14.87
2018-12-13T09:30:11.351Z,11.75
2018-12-13T09:32:39.925Z,12.82
2018-12-13T09:35:08.426Z,12.33
2018-12-13T09:37:36.941Z,15.48
2018-12-13T09:40:06.044Z,14.23
2018-12-13T09:42:34.576Z,15.00
2018-12-13T09:45:03.432Z,12.65
2018-12-13T09:47:32.000Z,13.20
2018-12-13T09:50:00.512Z,13.13
2018-12-13T09:52:29.032Z,11.90
2018-12-13T09:54:57.559Z,14.47
2018-12-13T09:57:26.143Z,11.97
2018-12-13T09:59:54.644Z,12.93
2018-12-13T10:02:23.157Z,13.40
2018-12-13T10:04:51.727Z,13.80
2018-12-13T10:07:20.246Z,12.30
2018-12-13T10:09:49.240Z,11.63
2018-12-13T10:12:17.804Z,11.60
2018-12-13T10:14:46.435Z,11.23
2018-12-13T10:17:15.043Z,11.40
2018-12-13T10:19:43.865Z,11.60
2018-12-13T10:22:13.140Z,12.03
2018-12-13T10:24:41.647Z,11.38
2018-12-13T10:27:10.173Z,10.63
2018-12-13T10:29:38.693Z,11.00
2018-12-13T10:32:07.216Z,10.80
2018-12-13T10:34:35.752Z,10.83
2018-12-13T10:37:04.282Z,10.80
2018-12-13T10:39:32.785Z,10.57
2018-12-13T10:42:01.323Z,10.60
2018-12-13T10:44:35.364Z,12.00
2018-12-13T10:47:05.255Z,10.50
2018-12-13T10:49:33.751Z,11.23
2018-12-13T10:52:02.297Z,11.90
2018-12-13T10:54:31.023Z,10.93
2018-12-13T10:56:59.539Z,10.57
2018-12-13T10:59:28.036Z,10.20
2018-12-13T11:02:01.580Z,9.80
2018-12-13T11:04:30.302Z,10.63
2018-12-13T11:06:58.932Z,9.27
2018-12-13T11:09:27.469Z,10.60
2018-12-13T11:11:56.070Z,10.70
2018-12-13T11:14:24.627Z,10.90
2018-12-13T11:16:53.247Z,9.90
2018-12-13T11:19:21.777Z,9.77
2018-12-13T11:21:50.279Z,10.77
2018-12-13T11:24:18.822Z,10.37
2018-12-13T11:26:47.348Z,10.37
2018-12-13T11:30:24.962Z,9.00
2018-12-13T11:32:53.526Z,11.07
2018-12-13T11:35:22.119Z,10.10
2018-12-13T11:37:50.638Z,10.70
2018-12-13T11:40:19.151Z,11.00
2018-12-13T11:42:47.641Z,10.47
2018-12-13T11:45:16.167Z,8.53
2018-12-13T11:47:44.659Z,10.97
2018-12-13T11:50:13.183Z,10.67
2018-12-13T11:52:41.835Z,9.50
2018-12-13T11:55:22.437Z,9.20
2018-12-13T11:57:50.956Z,10.37
2018-12-13T12:00:19.605Z,8.63
2018-12-13T12:02:48.102Z,9.40
2018-12-13T12:05:16.617Z,8.93
2018-12-13T12:07:45.151Z,8.03
2018-12-13T12:10:13.929Z,8.70
2018-12-13T12:12:42.464Z,8.77
2018-12-13T12:15:11.302Z,9.27
2018-12-13T12:17:40.224Z,8.33
2018-12-13T12:20:09.082Z,10.17
2018-12-13T12:22:37.590Z,9.67
2018-12-13T12:25:07.101Z,7.57
2018-12-13T12:27:35.867Z,7.80
2018-12-13T12:30:05.101Z,9.67
2018-12-13T12:32:33.588Z,9.73
2018-12-13T12:35:02.103Z,9.13
2018-12-13T12:37:30.639Z,9.40
2018-12-13T12:39:59.365Z,9.20
2018-12-13T12:42:27.893Z,9.40
2018-12-13T12:44:56.403Z,8.20
2018-12-13T12:47:24.913Z,9.77
2018-12-13T12:49:53.545Z,10.20
2018-12-13T12:52:22.650Z,10.00
2018-12-13T12:54:51.526Z,10.67
2018-12-13T12:57:20.801Z,8.53
2018-12-13T12:59:51.356Z,11.10
2018-12-13T13:02:19.848Z,10.80
2018-12-13T13:04:48.633Z,10.43
2018-12-13T13:07:17.133Z,10.97
2018-12-13T13:09:45.713Z,13.23
2018-12-13T13:12:14.226Z,10.40
2018-12-13T13:14:42.765Z,11.43
2018-12-13T13:17:11.285Z,11.50
2018-12-13T13:19:39.773Z,11.33
2018-12-13T13:22:08.289Z,10.80
2018-12-13T13:24:36.827Z,10.00
2018-12-13T13:27:05.345Z,10.70
2018-12-13T13:29:33.836Z,10.33
2018-12-13T13:32:02.350Z,12.50
2018-12-13T13:34:30.923Z,10.50
2018-12-13T13:36:59.467Z,12.63
2018-12-13T13:39:31.555Z,10.00
2018-12-13T13:41:58.753Z,11.70
2018-12-13T13:44:31.540Z,11.30
2018-12-13T13:47:00.156Z,10.37
2018-12-13T13:49:28.674Z,9.93
2018-12-13T13:51:57.915Z,11.57
2018-12-13T13:54:26.528Z,12.93
2018-12-13T13:56:55.149Z,9.30
2018-12-13T13:59:24.081Z,12.50
2018-12-13T14:01:52.621Z,11.33
2018-12-13T14:04:21.168Z,11.57
2018-12-13T14:06:49.752Z,11.20
2018-12-13T14:09:18.248Z,11.67
2018-12-13T14:11:46.921Z,11.40
2018-12-13T14:14:15.445Z,12.30
2018-12-13T14:16:44.037Z,12.90
2018-12-13T14:19:12.531Z,13.13
2018-12-13T14:21:41.091Z,14.40
2018-12-13T14:24:09.621Z,13.73
2018-12-13T14:26:38.150Z,12.70
2018-12-13T14:29:06.653Z,12.87
2018-12-13T14:31:35.195Z,12.30
2018-12-13T14:34:03.751Z,13.67
2018-12-13T14:36:32.267Z,12.43
2018-12-13T14:39:00.791Z,12.73
2018-12-13T14:41:29.344Z,11.43
2018-12-13T14:43:57.985Z,11.40
2018-12-13T14:46:26.519Z,12.83
2018-12-13T14:48:55.049Z,12.20
2018-12-13T14:51:23.618Z,12.63
2018-12-13T14:53:52.148Z,13.90
2018-12-13T14:56:20.675Z,11.73
2018-12-13T14:58:49.287Z,12.43
2018-12-13T15:01:17.792Z,11.13
2018-12-13T15:03:46.995Z,13.20
2018-12-13T15:06:15.503Z,13.50
2018-12-13T15:08:44.048Z,12.40
2018-12-13T15:11:12.539Z,13.30
2018-12-13T15:13:41.224Z,13.53
2018-12-13T15:16:09.737Z,14.43
2018-12-13T15:18:38.309Z,12.17
2018-12-13T15:21:06.796Z,14.63
2018-12-13T15:23:35.533Z,13.17
2018-12-13T15:26:04.040Z,13.20
2018-12-13T15:28:32.575Z,14.87
2018-12-13T15:31:01.073Z,12.20
2018-12-13T15:33:29.613Z,15.30
2018-12-13T15:35:58.117Z,16.03
2018-12-13T15:38:26.639Z,15.10
2018-12-13T15:40:55.747Z,13.57
2018-12-13T15:43:24.456Z,15.97
2018-12-13T15:45:52.978Z,15.30
2018-12-13T15:48:21.602Z,14.27
2018-12-13T15:50:50.100Z,17.87
2018-12-13T15:53:18.631Z,14.30
2018-12-13T15:55:47.137Z,15.23
2018-12-13T15:58:15.640Z,15.63
2018-12-13T16:00:44.177Z,14.57
2018-12-13T16:03:12.713Z,13.03
2018-12-13T16:05:41.204Z,14.70
2018-12-13T16:08:09.774Z,13.10
2018-12-13T16:10:38.260Z,13.00
2018-12-13T16:13:06.822Z,13.73
2018-12-13T16:15:35.327Z,14.53
2018-12-13T16:18:03.856Z,14.00
2018-12-13T16:20:32.385Z,12.30
2018-12-13T16:23:00.919Z,12.70
2018-12-13T16:25:29.395Z,14.40
2018-12-13T16:27:57.892Z,12.93
2018-12-13T16:30:27.648Z,13.20
2018-12-13T16:32:56.347Z,12.53
2018-12-13T16:35:24.866Z,11.97
2018-12-13T16:37:53.352Z,12.50
2018-12-13T16:40:21.866Z,13.53
2018-12-13T16:42:50.423Z,12.70
2018-12-13T16:45:18.953Z,15.60
2018-12-13T16:47:47.440Z,13.73
2018-12-13T16:50:15.951Z,14.03
2018-12-13T16:52:44.524Z,12.47
2018-12-13T16:55:13.244Z,14.27
2018-12-13T16:57:41.724Z,13.23
2018-12-13T17:00:10.507Z,13.50
2018-12-13T17:02:39.008Z,14.57
2018-12-13T17:05:07.525Z,14.00
2018-12-13T17:07:36.013Z,13.13
2018-12-13T17:10:05.214Z,11.83
2018-12-13T17:12:35.425Z,14.63
2018-12-13T17:15:04.210Z,15.50
2018-12-13T17:17:32.705Z,15.60
2018-12-13T17:20:01.217Z,15.30
2018-12-13T17:22:29.719Z,14.13
2018-12-13T17:24:58.230Z,14.90
2018-12-13T17:27:26.788Z,13.67
2018-12-13T17:29:55.316Z,15.53
2018-12-13T17:32:23.845Z,11.30
2018-12-13T17:34:52.368Z,11.93
2018-12-13T17:37:21.006Z,15.30
2018-12-13T17:39:49.600Z,13.80
2018-12-13T17:42:18.098Z,14.20
2018-12-13T17:44:46.628Z,15.07
2018-12-13T17:47:15.141Z,15.70
2018-12-13T17:49:43.657Z,14.10
2018-12-13T17:52:12.161Z,14.87
2018-12-13T17:54:40.672Z,16.87
2018-12-13T17:57:09.177Z,14.40
2018-12-13T17:59:37.704Z,14.63
2018-12-13T18:02:06.217Z,15.37
2018-12-13T18:04:34.744Z,17.30
2018-12-13T18:07:03.294Z,15.30
2018-12-13T18:09:31.789Z,13.97
2018-12-13T18:12:00.308Z,15.55
2018-12-13T18:14:28.892Z,15.17
2018-12-13T18:16:57.415Z,14.50
2018-12-13T18:19:25.925Z,15.93
2018-12-13T18:21:54.504Z,17.20
2018-12-13T18:24:23.064Z,16.17
2018-12-13T18:26:51.575Z,17.00
2018-12-13T18:29:20.054Z,17.10
2018-12-13T18:31:48.586Z,13.73
2018-12-13T18:34:17.077Z,13.93
2018-12-13T18:36:45.637Z,14.97
2018-12-13T18:39:14.139Z,15.43
2018-12-13T18:41:42.660Z,14.43
2018-12-13T18:44:11.154Z,12.33
2018-12-13T18:46:39.692Z,15.40
2018-12-13T18:49:08.224Z,15.97
2018-12-13T18:51:36.944Z,16.07
2018-12-13T18:54:05.453Z,16.03
2018-12-13T18:56:33.992Z,13.87
2018-12-13T18:59:02.529Z,15.50
2018-12-13T19:01:31.071Z,13.40
2018-12-13T19:03:59.565Z,15.10
2018-12-13T19:06:28.206Z,14.17
2018-12-13T19:08:56.707Z,13.80
2018-12-13T19:11:25.286Z,11.27
2018-12-13T19:13:53.821Z,14.70
2018-12-13T19:16:22.348Z,14.30
2018-12-13T19:18:50.849Z,13.00
2018-12-13T19:21:19.403Z,13.50
2018-12-13T19:23:47.923Z,15.50
2018-12-13T19:26:16.467Z,13.17
2018-12-13T19:28:45.075Z,13.70
2018-12-13T19:31:13.616Z,12.90
2018-12-13T19:33:42.115Z,14.30
2018-12-13T19:36:10.669Z,14.60
2018-12-13T19:38:39.210Z,15.50
2018-12-13T19:41:07.834Z,15.70
2018-12-13T19:43:36.368Z,14.05
2018-12-13T19:46:04.895Z,14.33
2018-12-13T19:48:33.385Z,14.03
2018-12-13T19:51:02.215Z,15.70
2018-12-13T19:53:30.734Z,13.37
2018-12-13T19:55:59.290Z,13.62
2018-12-13T19:58:27.879Z,15.27
2018-12-13T20:00:56.413Z,14.63
2018-12-13T20:03:25.009Z,14.80
2018-12-13T20:05:53.540Z,13.93
2018-12-13T20:08:22.016Z,14.20
2018-12-13T20:10:54.584Z,13.70
2018-12-13T20:13:21.064Z,15.37
2018-12-13T20:15:49.755Z,15.60
2018-12-13T20:18:18.248Z,14.47
2018-12-13T20:20:46.769Z,15.73
2018-12-13T20:23:15.288Z,18.30
2018-12-13T20:25:43.813Z,14.47
2018-12-13T20:28:12.586Z,16.42
2018-12-13T20:30:41.098Z,16.33
2018-12-13T20:33:09.651Z,17.87
2018-12-13T20:35:38.478Z,15.07
2018-12-13T20:38:08.009Z,18.33
2018-12-13T20:40:36.540Z,19.10
2018-12-13T20:43:05.272Z,15.37
2018-12-13T20:45:33.805Z,17.40
2018-12-13T20:48:02.310Z,15.50
2018-12-13T20:50:30.823Z,13.48
2018-12-13T20:52:59.427Z,16.67
2018-12-13T20:55:27.929Z,15.70
2018-12-13T20:57:56.461Z,15.65
2018-12-13T21:00:24.988Z,15.80
2018-12-13T21:02:53.499Z,15.13
2018-12-13T21:05:22.002Z,18.23
2018-12-13T21:07:52.557Z,16.63
2018-12-13T21:10:21.070Z,17.40
2018-12-13T21:12:49.656Z,15.10
2018-12-13T21:15:18.172Z,16.07
2018-12-13T21:17:46.684Z,17.40
2018-12-13T21:20:15.173Z,15.10
2018-12-13T21:22:43.789Z,15.60
2018-12-13T21:25:12.284Z,17.73
2018-12-13T21:27:40.857Z,17.27
2018-12-13T21:30:09.390Z,17.93
2018-12-13T21:32:38.041Z,18.30
2018-12-13T21:35:07.222Z,16.83
2018-12-13T21:37:35.921Z,16.80
2018-12-13T21:40:04.893Z,19.07
2018-12-13T21:42:33.400Z,16.70
2018-12-13T21:45:01.906Z,16.77
2018-12-13T21:47:30.424Z,16.60
2018-12-13T21:49:59.699Z,16.82
2018-12-13T21:52:28.426Z,17.10
2018-12-13T21:54:57.469Z,18.50
2018-12-13T21:57:26.318Z,15.40
2018-12-13T21:59:54.896Z,16.32
2018-12-13T22:02:23.437Z,16.80
2018-12-13T22:04:51.934Z,17.12
2018-12-13T22:07:20.456Z,17.00
2018-12-13T22:09:48.959Z,15.83
2018-12-13T22:12:17.510Z,17.00
2018-12-13T22:14:45.995Z,15.23
2018-12-13T22:17:14.570Z,14.80
2018-12-13T22:19:43.068Z,17.30
2018-12-13T22:22:11.594Z,16.42
2018-12-13T22:24:40.084Z,16.43
2018-12-13T22:27:08.621Z,16.30
2018-12-13T22:29:37.130Z,13.55
2018-12-13T22:32:06.390Z,14.90
2018-12-13T22:34:35.237Z,12.90
2018-12-13T22:37:04.102Z,13.40
2018-12-13T22:39:32.601Z,14.67
2018-12-13T22:42:01.142Z,14.03
2018-12-13T22:44:29.693Z,12.65
2018-12-13T22:46:58.425Z,14.73
2018-12-13T22:49:26.928Z,14.73
2018-12-13T22:51:55.580Z,13.43
2018-12-13T22:54:24.100Z,12.57
2018-12-13T22:56:52.625Z,13.78
2018-12-13T22:59:21.164Z,14.23
2018-12-13T23:01:49.908Z,13.97
2018-12-13T23:04:18.409Z,14.30
2018-12-13T23:06:46.939Z,15.63
2018-12-13T23:09:15.472Z,14.75
2018-12-13T23:11:43.999Z,15.67
2018-12-13T23:14:12.797Z,14.03
2018-12-13T23:16:41.332Z,13.77
2018-12-13T23:19:09.824Z,15.40
2018-12-13T23:21:38.421Z,20.40
2018-12-13T23:24:07.031Z,16.50
2018-12-13T23:26:35.585Z,14.90
2018-12-13T23:29:04.215Z,14.53
2018-12-13T23:31:32.766Z,13.18
2018-12-13T23:34:01.247Z,13.07
2018-12-13T23:36:29.778Z,14.33
2018-12-13T23:38:58.302Z,13.23
2018-12-13T23:41:27.148Z,14.73
2018-12-13T23:43:55.669Z,13.78
2018-12-13T23:46:24.176Z,13.60
2018-12-13T23:48:52.799Z,14.60
2018-12-13T23:51:21.328Z,15.88
2018-12-13T23:53:49.852Z,17.67
2018-12-13T23:56:18.497Z,15.27
2018-12-13T23:58:47.355Z,14.93
